sensor_id;sensor_type;location;lat;lon;timestamp;P1;durP1;ratioP1;P2;durP2;ratioP2
8353;SDS011;4656;48.090;11.498;2023-05-07T00:01:19;11.88;;;7.82;;
8353;SDS011;4656;48.090;11.498;2023-05-07T00:03:22;14.05;;;8.10;;
8353;SDS011;4656;48.090;11.498;2023-05-07T00:05:26;13.37;;;8.33;;
8353;SDS011;4656;48.090;11.498;2023-05-07T00:07:28;11.25;;;7.00;;
8353;SDS011;4656;48.090;11.498;2023-05-07T00:09:36;13.23;;;7.47;;
8353;SDS011;4656;48.090;11.498;2023-05-07T00:11:38;9.32;;;6.82;;
8353;SDS011;4656;48.090;11.498;2023-05-07T00:13:43;10.83;;;7.40;;
8353;SDS011;4656;48.090;11.498;2023-05-07T00:15:45;16.17;;;8.77;;
8353;SDS011;4656;48.090;11.498;2023-05-07T00:17:50;11.95;;;8.38;;
8353;SDS011;4656;48.090;11.498;2023-05-07T00:19:53;12.25;;;7.53;;
8353;SDS011;4656;48.090;11.498;2023-05-07T00:22:01;13.68;;;8.50;;
8353;SDS011;4656;48.090;11.498;2023-05-07T00:24:03;14.30;;;9.10;;
8353;SDS011;4656;48.090;11.498;2023-05-07T00:26:05;12.13;;;8.45;;
8353;SDS011;4656;48.090;11.498;2023-05-07T00:28:07;14.03;;;9.30;;
8353;SDS011;4656;48.090;11.498;2023-05-07T00:30:10;14.32;;;9.05;;
8353;SDS011;4656;48.090;11.498;2023-05-07T00:32:12;13.90;;;8.77;;
8353;SDS011;4656;48.090;11.498;2023-05-07T00:34:14;11.57;;;8.25;;
8353;SDS011;4656;48.090;11.498;2023-05-07T00:36:16;15.75;;;8.95;;
8353;SDS011;4656;48.090;11.498;2023-05-07T00:38:23;15.45;;;9.02;;
8353;SDS011;4656;48.090;11.498;2023-05-07T00:40:27;13.77;;;8.63;;
8353;SDS011;4656;48.090;11.498;2023-05-07T00:42:29;11.95;;;8.65;;
8353;SDS011;4656;48.090;11.498;2023-05-07T00:44:32;13.97;;;8.20;;
8353;SDS011;4656;48.090;11.498;2023-05-07T00:46:34;11.70;;;8.35;;
8353;SDS011;4656;48.090;11.498;2023-05-07T00:48:38;12.93;;;8.57;;
8353;SDS011;4656;48.090;11.498;2023-05-07T00:50:40;14.88;;;8.93;;
8353;SDS011;4656;48.090;11.498;2023-05-07T00:52:50;16.30;;;9.30;;
8353;SDS011;4656;48.090;11.498;2023-05-07T00:54:56;15.38;;;9.43;;
8353;SDS011;4656;48.090;11.498;2023-05-07T00:57:02;18.90;;;10.20;;
8353;SDS011;4656;48.090;11.498;2023-05-07T00:59:10;16.95;;;11.20;;
8353;SDS011;4656;48.090;11.498;2023-05-07T01:01:12;15.73;;;9.90;;
8353;SDS011;4656;48.090;11.498;2023-05-07T01:03:19;20.67;;;12.18;;
8353;SDS011;4656;48.090;11.498;2023-05-07T01:05:22;26.70;;;16.85;;
8353;SDS011;4656;48.090;11.498;2023-05-07T01:07:25;19.00;;;11.30;;
8353;SDS011;4656;48.090;11.498;2023-05-07T01:09:27;17.30;;;10.57;;
8353;SDS011;4656;48.090;11.498;2023-05-07T01:11:31;13.30;;;9.30;;
8353;SDS011;4656;48.090;11.498;2023-05-07T01:13:34;16.52;;;8.93;;
8353;SDS011;4656;48.090;11.498;2023-05-07T01:15:36;13.70;;;8.80;;
8353;SDS011;4656;48.090;11.498;2023-05-07T01:17:41;14.10;;;8.93;;
8353;SDS011;4656;48.090;11.498;2023-05-07T01:19:43;18.13;;;9.47;;
8353;SDS011;4656;48.090;11.498;2023-05-07T01:21:54;13.23;;;8.70;;
8353;SDS011;4656;48.090;11.498;2023-05-07T01:23:59;15.00;;;8.80;;
8353;SDS011;4656;48.090;11.498;2023-05-07T01:26:01;16.42;;;9.18;;
8353;SDS011;4656;48.090;11.498;2023-05-07T01:28:03;15.98;;;10.00;;
8353;SDS011;4656;48.090;11.498;2023-05-07T01:30:06;16.13;;;10.77;;
8353;SDS011;4656;48.090;11.498;2023-05-07T01:32:09;17.55;;;10.63;;
8353;SDS011;4656;48.090;11.498;2023-05-07T01:34:14;17.05;;;10.00;;
8353;SDS011;4656;48.090;11.498;2023-05-07T01:36:17;14.45;;;9.88;;
8353;SDS011;4656;48.090;11.498;2023-05-07T01:38:23;15.65;;;9.50;;
8353;SDS011;4656;48.090;11.498;2023-05-07T01:40:26;19.63;;;10.98;;
8353;SDS011;4656;48.090;11.498;2023-05-07T01:42:36;22.42;;;11.65;;
8353;SDS011;4656;48.090;11.498;2023-05-07T01:44:38;20.80;;;11.25;;
8353;SDS011;4656;48.090;11.498;2023-05-07T01:46:58;17.13;;;11.32;;
8353;SDS011;4656;48.090;11.498;2023-05-07T01:49:03;17.70;;;9.45;;
8353;SDS011;4656;48.090;11.498;2023-05-07T01:51:05;13.17;;;8.70;;
8353;SDS011;4656;48.090;11.498;2023-05-07T01:53:08;13.82;;;9.10;;
8353;SDS011;4656;48.090;11.498;2023-05-07T01:55:10;14.73;;;9.80;;
8353;SDS011;4656;48.090;11.498;2023-05-07T01:57:13;15.45;;;9.60;;
8353;SDS011;4656;48.090;11.498;2023-05-07T01:59:16;15.45;;;9.80;;
8353;SDS011;4656;48.090;11.498;2023-05-07T02:01:18;16.05;;;9.90;;
8353;SDS011;4656;48.090;11.498;2023-05-07T02:03:20;13.88;;;9.30;;
8353;SDS011;4656;48.090;11.498;2023-05-07T02:05:24;18.48;;;10.40;;
8353;SDS011;4656;48.090;11.498;2023-05-07T02:07:26;16.07;;;10.30;;
8353;SDS011;4656;48.090;11.498;2023-05-07T02:09:28;17.90;;;10.30;;
8353;SDS011;4656;48.090;11.498;2023-05-07T02:11:32;15.00;;;10.23;;
8353;SDS011;4656;48.090;11.498;2023-05-07T02:13:35;19.42;;;10.20;;
8353;SDS011;4656;48.090;11.498;2023-05-07T02:15:37;16.65;;;11.15;;
8353;SDS011;4656;48.090;11.498;2023-05-07T02:17:58;15.15;;;9.68;;
8353;SDS011;4656;48.090;11.498;2023-05-07T02:20:07;16.58;;;9.02;;
8353;SDS011;4656;48.090;11.498;2023-05-07T02:22:13;18.00;;;10.15;;
8353;SDS011;4656;48.090;11.498;2023-05-07T02:24:15;16.60;;;9.25;;
8353;SDS011;4656;48.090;11.498;2023-05-07T02:26:20;18.45;;;8.95;;
8353;SDS011;4656;48.090;11.498;2023-05-07T02:28:22;15.80;;;9.48;;
8353;SDS011;4656;48.090;11.498;2023-05-07T02:30:26;19.23;;;10.40;;
8353;SDS011;4656;48.090;11.498;2023-05-07T02:32:28;16.90;;;10.35;;
8353;SDS011;4656;48.090;11.498;2023-05-07T02:34:30;16.88;;;10.77;;
8353;SDS011;4656;48.090;11.498;2023-05-07T02:36:32;15.75;;;10.02;;
8353;SDS011;4656;48.090;11.498;2023-05-07T02:38:34;17.38;;;9.68;;
8353;SDS011;4656;48.090;11.498;2023-05-07T02:40:37;17.55;;;9.88;;
8353;SDS011;4656;48.090;11.498;2023-05-07T02:42:39;13.80;;;9.02;;
8353;SDS011;4656;48.090;11.498;2023-05-07T02:44:41;16.58;;;9.70;;
8353;SDS011;4656;48.090;11.498;2023-05-07T02:46:45;18.98;;;9.98;;
8353;SDS011;4656;48.090;11.498;2023-05-07T02:48:47;17.73;;;10.23;;
8353;SDS011;4656;48.090;11.498;2023-05-07T02:50:49;16.85;;;10.27;;
8353;SDS011;4656;48.090;11.498;2023-05-07T02:52:51;17.00;;;10.68;;
8353;SDS011;4656;48.090;11.498;2023-05-07T02:54:56;18.63;;;10.52;;
8353;SDS011;4656;48.090;11.498;2023-05-07T02:56:58;18.83;;;10.45;;
8353;SDS011;4656;48.090;11.498;2023-05-07T02:59:00;19.45;;;11.15;;
8353;SDS011;4656;48.090;11.498;2023-05-07T03:01:03;16.58;;;10.82;;
8353;SDS011;4656;48.090;11.498;2023-05-07T03:03:06;20.83;;;11.95;;
8353;SDS011;4656;48.090;11.498;2023-05-07T03:05:08;18.98;;;11.95;;
8353;SDS011;4656;48.090;11.498;2023-05-07T03:07:10;17.75;;;10.75;;
8353;SDS011;4656;48.090;11.498;2023-05-07T03:09:12;19.50;;;11.60;;
8353;SDS011;4656;48.090;11.498;2023-05-07T03:11:15;17.08;;;10.65;;
8353;SDS011;4656;48.090;11.498;2023-05-07T03:13:17;23.77;;;11.15;;
8353;SDS011;4656;48.090;11.498;2023-05-07T03:15:19;18.73;;;10.63;;
8353;SDS011;4656;48.090;11.498;2023-05-07T03:17:21;13.13;;;9.67;;
8353;SDS011;4656;48.090;11.498;2023-05-07T03:19:25;20.02;;;11.25;;
8353;SDS011;4656;48.090;11.498;2023-05-07T03:21:27;19.98;;;10.38;;
8353;SDS011;4656;48.090;11.498;2023-05-07T03:23:30;17.33;;;9.80;;
8353;SDS011;4656;48.090;11.498;2023-05-07T03:25:32;18.27;;;10.50;;
8353;SDS011;4656;48.090;11.498;2023-05-07T03:27:34;18.08;;;10.00;;
8353;SDS011;4656;48.090;11.498;2023-05-07T03:29:37;19.77;;;11.02;;
8353;SDS011;4656;48.090;11.498;2023-05-07T03:31:39;19.83;;;10.55;;
8353;SDS011;4656;48.090;11.498;2023-05-07T03:33:49;23.10;;;11.73;;
8353;SDS011;4656;48.090;11.498;2023-05-07T03:35:53;22.13;;;12.15;;
8353;SDS011;4656;48.090;11.498;2023-05-07T03:37:55;28.37;;;13.27;;
8353;SDS011;4656;48.090;11.498;2023-05-07T03:39:57;21.08;;;12.60;;
8353;SDS011;4656;48.090;11.498;2023-05-07T03:41:59;23.65;;;12.13;;
8353;SDS011;4656;48.090;11.498;2023-05-07T03:44:02;21.23;;;11.33;;
8353;SDS011;4656;48.090;11.498;2023-05-07T03:46:04;19.05;;;11.73;;
8353;SDS011;4656;48.090;11.498;2023-05-07T03:48:06;21.40;;;12.20;;
8353;SDS011;4656;48.090;11.498;2023-05-07T03:50:09;22.58;;;12.35;;
8353;SDS011;4656;48.090;11.498;2023-05-07T03:52:13;21.60;;;11.77;;
8353;SDS011;4656;48.090;11.498;2023-05-07T03:54:15;21.60;;;11.45;;
8353;SDS011;4656;48.090;11.498;2023-05-07T03:56:17;20.30;;;11.80;;
8353;SDS011;4656;48.090;11.498;2023-05-07T03:58:19;19.45;;;12.25;;
8353;SDS011;4656;48.090;11.498;2023-05-07T04:00:24;22.55;;;12.60;;
8353;SDS011;4656;48.090;11.498;2023-05-07T04:02:26;20.55;;;11.60;;
8353;SDS011;4656;48.090;11.498;2023-05-07T04:04:28;17.35;;;11.13;;
8353;SDS011;4656;48.090;11.498;2023-05-07T04:06:32;18.70;;;10.73;;
8353;SDS011;4656;48.090;11.498;2023-05-07T04:08:36;18.83;;;11.43;;
8353;SDS011;4656;48.090;11.498;2023-05-07T04:10:38;17.48;;;11.13;;
8353;SDS011;4656;48.090;11.498;2023-05-07T04:12:40;16.20;;;10.80;;
8353;SDS011;4656;48.090;11.498;2023-05-07T04:14:42;19.92;;;10.57;;
8353;SDS011;4656;48.090;11.498;2023-05-07T04:16:44;15.98;;;10.65;;
8353;SDS011;4656;48.090;11.498;2023-05-07T04:18:46;19.65;;;11.15;;
8353;SDS011;4656;48.090;11.498;2023-05-07T04:20:51;19.13;;;11.00;;
8353;SDS011;4656;48.090;11.498;2023-05-07T04:22:53;17.77;;;11.00;;
8353;SDS011;4656;48.090;11.498;2023-05-07T04:24:57;18.88;;;11.27;;
8353;SDS011;4656;48.090;11.498;2023-05-07T04:27:00;19.63;;;11.35;;
8353;SDS011;4656;48.090;11.498;2023-05-07T04:29:02;17.57;;;10.60;;
8353;SDS011;4656;48.090;11.498;2023-05-07T04:31:06;16.63;;;10.43;;
8353;SDS011;4656;48.090;11.498;2023-05-07T04:33:11;14.60;;;9.70;;
8353;SDS011;4656;48.090;11.498;2023-05-07T04:35:13;13.85;;;9.07;;
8353;SDS011;4656;48.090;11.498;2023-05-07T04:37:15;15.43;;;10.15;;
8353;SDS011;4656;48.090;11.498;2023-05-07T04:39:18;12.68;;;9.07;;
8353;SDS011;4656;48.090;11.498;2023-05-07T04:41:24;11.45;;;8.27;;
8353;SDS011;4656;48.090;11.498;2023-05-07T04:43:27;11.93;;;8.10;;
8353;SDS011;4656;48.090;11.498;2023-05-07T04:45:29;10.48;;;7.93;;
8353;SDS011;4656;48.090;11.498;2023-05-07T04:47:32;10.25;;;8.05;;
8353;SDS011;4656;48.090;11.498;2023-05-07T04:49:34;8.65;;;7.10;;
8353;SDS011;4656;48.090;11.498;2023-05-07T04:51:36;8.40;;;7.32;;
8353;SDS011;4656;48.090;11.498;2023-05-07T04:53:38;9.15;;;7.30;;
8353;SDS011;4656;48.090;11.498;2023-05-07T04:55:40;8.30;;;6.63;;
8353;SDS011;4656;48.090;11.498;2023-05-07T04:57:44;9.48;;;6.35;;
8353;SDS011;4656;48.090;11.498;2023-05-07T04:59:46;7.28;;;6.53;;
8353;SDS011;4656;48.090;11.498;2023-05-07T05:01:48;8.20;;;6.53;;
8353;SDS011;4656;48.090;11.498;2023-05-07T05:03:50;9.32;;;6.35;;
8353;SDS011;4656;48.090;11.498;2023-05-07T05:05:52;9.15;;;6.43;;
8353;SDS011;4656;48.090;11.498;2023-05-07T05:07:56;9.40;;;6.75;;
8353;SDS011;4656;48.090;11.498;2023-05-07T05:09:58;7.57;;;6.38;;
8353;SDS011;4656;48.090;11.498;2023-05-07T05:12:00;8.18;;;6.97;;
8353;SDS011;4656;48.090;11.498;2023-05-07T05:14:04;7.40;;;6.00;;
8353;SDS011;4656;48.090;11.498;2023-05-07T05:16:06;9.75;;;5.80;;
8353;SDS011;4656;48.090;11.498;2023-05-07T05:18:08;6.47;;;5.25;;
8353;SDS011;4656;48.090;11.498;2023-05-07T05:20:10;4.40;;;4.00;;
8353;SDS011;4656;48.090;11.498;2023-05-07T05:22:12;4.70;;;3.63;;
8353;SDS011;4656;48.090;11.498;2023-05-07T05:24:15;3.97;;;2.90;;
8353;SDS011;4656;48.090;11.498;2023-05-07T05:26:17;3.90;;;2.90;;
8353;SDS011;4656;48.090;11.498;2023-05-07T05:28:21;4.10;;;2.72;;
8353;SDS011;4656;48.090;11.498;2023-05-07T05:30:24;4.10;;;2.58;;
8353;SDS011;4656;48.090;11.498;2023-05-07T05:32:27;3.20;;;2.60;;
8353;SDS011;4656;48.090;11.498;2023-05-07T05:34:29;3.13;;;2.33;;
8353;SDS011;4656;48.090;11.498;2023-05-07T05:36:33;2.67;;;2.40;;
8353;SDS011;4656;48.090;11.498;2023-05-07T05:38:35;2.75;;;2.55;;
8353;SDS011;4656;48.090;11.498;2023-05-07T05:40:37;3.53;;;2.70;;
8353;SDS011;4656;48.090;11.498;2023-05-07T05:42:39;4.10;;;2.33;;
8353;SDS011;4656;48.090;11.498;2023-05-07T05:44:41;4.15;;;2.80;;
8353;SDS011;4656;48.090;11.498;2023-05-07T05:46:45;3.13;;;2.40;;
8353;SDS011;4656;48.090;11.498;2023-05-07T05:48:47;2.65;;;2.45;;
8353;SDS011;4656;48.090;11.498;2023-05-07T05:50:49;4.22;;;2.38;;
8353;SDS011;4656;48.090;11.498;2023-05-07T05:52:51;4.97;;;2.58;;
8353;SDS011;4656;48.090;11.498;2023-05-07T05:54:53;2.85;;;2.40;;
8353;SDS011;4656;48.090;11.498;2023-05-07T05:56:55;2.88;;;2.33;;
8353;SDS011;4656;48.090;11.498;2023-05-07T05:58:57;2.47;;;2.28;;
8353;SDS011;4656;48.090;11.498;2023-05-07T06:01:00;3.35;;;2.38;;
8353;SDS011;4656;48.090;11.498;2023-05-07T06:03:04;3.97;;;2.22;;
8353;SDS011;4656;48.090;11.498;2023-05-07T06:05:06;2.55;;;2.00;;
8353;SDS011;4656;48.090;11.498;2023-05-07T06:07:08;3.50;;;2.33;;
8353;SDS011;4656;48.090;11.498;2023-05-07T06:09:10;4.45;;;2.30;;
8353;SDS011;4656;48.090;11.498;2023-05-07T06:11:12;2.28;;;2.08;;
8353;SDS011;4656;48.090;11.498;2023-05-07T06:13:14;2.50;;;2.10;;
8353;SDS011;4656;48.090;11.498;2023-05-07T06:15:17;2.60;;;2.10;;
8353;SDS011;4656;48.090;11.498;2023-05-07T06:17:19;2.78;;;2.00;;
8353;SDS011;4656;48.090;11.498;2023-05-07T06:19:25;2.70;;;2.00;;
8353;SDS011;4656;48.090;11.498;2023-05-07T06:21:28;2.42;;;2.22;;
8353;SDS011;4656;48.090;11.498;2023-05-07T06:23:30;2.03;;;1.83;;
8353;SDS011;4656;48.090;11.498;2023-05-07T06:25:32;2.63;;;2.00;;
8353;SDS011;4656;48.090;11.498;2023-05-07T06:27:34;2.40;;;1.80;;
8353;SDS011;4656;48.090;11.498;2023-05-07T06:29:36;2.42;;;2.00;;
8353;SDS011;4656;48.090;11.498;2023-05-07T06:31:38;2.28;;;2.05;;
8353;SDS011;4656;48.090;11.498;2023-05-07T06:33:41;2.75;;;1.80;;
8353;SDS011;4656;48.090;11.498;2023-05-07T06:35:45;1.70;;;1.58;;
8353;SDS011;4656;48.090;11.498;2023-05-07T06:37:47;2.97;;;1.80;;
8353;SDS011;4656;48.090;11.498;2023-05-07T06:39:49;2.47;;;1.90;;
8353;SDS011;4656;48.090;11.498;2023-05-07T06:41:51;2.38;;;1.77;;
8353;SDS011;4656;48.090;11.498;2023-05-07T06:43:53;2.27;;;1.80;;
8353;SDS011;4656;48.090;11.498;2023-05-07T06:45:55;2.20;;;1.88;;
8353;SDS011;4656;48.090;11.498;2023-05-07T06:47:57;2.72;;;1.92;;
8353;SDS011;4656;48.090;11.498;2023-05-07T06:49:59;2.25;;;1.90;;
8353;SDS011;4656;48.090;11.498;2023-05-07T06:52:03;2.47;;;2.00;;
8353;SDS011;4656;48.090;11.498;2023-05-07T06:54:05;3.97;;;2.10;;
8353;SDS011;4656;48.090;11.498;2023-05-07T06:56:07;3.67;;;1.83;;
8353;SDS011;4656;48.090;11.498;2023-05-07T06:58:09;2.17;;;2.00;;
8353;SDS011;4656;48.090;11.498;2023-05-07T07:00:12;2.70;;;1.88;;
8353;SDS011;4656;48.090;11.498;2023-05-07T07:02:14;1.85;;;1.70;;
8353;SDS011;4656;48.090;11.498;2023-05-07T07:04:16;2.05;;;1.85;;
8353;SDS011;4656;48.090;11.498;2023-05-07T07:06:18;2.03;;;1.88;;
8353;SDS011;4656;48.090;11.498;2023-05-07T07:08:22;2.10;;;1.90;;
8353;SDS011;4656;48.090;11.498;2023-05-07T07:10:24;2.58;;;1.83;;
8353;SDS011;4656;48.090;11.498;2023-05-07T07:12:28;2.80;;;1.80;;
8353;SDS011;4656;48.090;11.498;2023-05-07T07:14:33;1.80;;;1.70;;
8353;SDS011;4656;48.090;11.498;2023-05-07T07:16:35;3.75;;;1.70;;
8353;SDS011;4656;48.090;11.498;2023-05-07T07:18:37;2.03;;;1.70;;
8353;SDS011;4656;48.090;11.498;2023-05-07T07:20:40;2.13;;;1.80;;
8353;SDS011;4656;48.090;11.498;2023-05-07T07:22:42;2.15;;;1.80;;
8353;SDS011;4656;48.090;11.498;2023-05-07T07:24:45;3.45;;;1.75;;
8353;SDS011;4656;48.090;11.498;2023-05-07T07:26:47;4.35;;;1.92;;
8353;SDS011;4656;48.090;11.498;2023-05-07T07:28:49;2.00;;;1.65;;
8353;SDS011;4656;48.090;11.498;2023-05-07T07:30:52;1.77;;;1.67;;
8353;SDS011;4656;48.090;11.498;2023-05-07T07:32:54;3.33;;;1.92;;
8353;SDS011;4656;48.090;11.498;2023-05-07T07:35:02;2.40;;;1.50;;
8353;SDS011;4656;48.090;11.498;2023-05-07T07:37:04;2.60;;;1.70;;
8353;SDS011;4656;48.090;11.498;2023-05-07T07:39:06;3.05;;;1.70;;
8353;SDS011;4656;48.090;11.498;2023-05-07T07:41:10;2.03;;;1.67;;
8353;SDS011;4656;48.090;11.498;2023-05-07T07:43:12;2.65;;;2.00;;
8353;SDS011;4656;48.090;11.498;2023-05-07T07:45:14;2.10;;;1.90;;
8353;SDS011;4656;48.090;11.498;2023-05-07T07:47:16;2.50;;;1.90;;
8353;SDS011;4656;48.090;11.498;2023-05-07T07:49:21;2.85;;;2.00;;
8353;SDS011;4656;48.090;11.498;2023-05-07T07:51:23;4.10;;;1.95;;
8353;SDS011;4656;48.090;11.498;2023-05-07T07:53:29;1.73;;;1.63;;
8353;SDS011;4656;48.090;11.498;2023-05-07T07:55:31;2.80;;;1.90;;
8353;SDS011;4656;48.090;11.498;2023-05-07T07:57:34;2.17;;;1.90;;
8353;SDS011;4656;48.090;11.498;2023-05-07T07:59:36;2.80;;;1.90;;
8353;SDS011;4656;48.090;11.498;2023-05-07T08:01:39;2.05;;;1.73;;
8353;SDS011;4656;48.090;11.498;2023-05-07T08:03:41;2.97;;;1.83;;
8353;SDS011;4656;48.090;11.498;2023-05-07T08:05:43;1.90;;;1.75;;
8353;SDS011;4656;48.090;11.498;2023-05-07T08:07:46;2.70;;;1.90;;
8353;SDS011;4656;48.090;11.498;2023-05-07T08:09:53;2.80;;;1.80;;
8353;SDS011;4656;48.090;11.498;2023-05-07T08:11:57;2.35;;;1.77;;
8353;SDS011;4656;48.090;11.498;2023-05-07T08:14:01;2.00;;;1.80;;
8353;SDS011;4656;48.090;11.498;2023-05-07T08:16:03;2.20;;;1.83;;
8353;SDS011;4656;48.090;11.498;2023-05-07T08:18:05;2.28;;;2.08;;
8353;SDS011;4656;48.090;11.498;2023-05-07T08:20:07;2.27;;;1.80;;
8353;SDS011;4656;48.090;11.498;2023-05-07T08:22:12;2.05;;;1.90;;
8353;SDS011;4656;48.090;11.498;2023-05-07T08:24:14;2.00;;;1.80;;
8353;SDS011;4656;48.090;11.498;2023-05-07T08:26:16;5.63;;;2.70;;
8353;SDS011;4656;48.090;11.498;2023-05-07T08:28:19;2.50;;;1.90;;
8353;SDS011;4656;48.090;11.498;2023-05-07T08:30:22;3.13;;;1.83;;
8353;SDS011;4656;48.090;11.498;2023-05-07T08:32:24;2.77;;;1.90;;
8353;SDS011;4656;48.090;11.498;2023-05-07T08:34:27;3.22;;;1.80;;
8353;SDS011;4656;48.090;11.498;2023-05-07T08:36:29;2.07;;;1.80;;
8353;SDS011;4656;48.090;11.498;2023-05-07T08:38:31;1.80;;;1.70;;
8353;SDS011;4656;48.090;11.498;2023-05-07T08:40:35;2.25;;;1.75;;
8353;SDS011;4656;48.090;11.498;2023-05-07T08:42:40;3.33;;;1.88;;
8353;SDS011;4656;48.090;11.498;2023-05-07T08:44:44;2.23;;;1.80;;
8353;SDS011;4656;48.090;11.498;2023-05-07T08:46:49;3.87;;;1.93;;
8353;SDS011;4656;48.090;11.498;2023-05-07T08:48:54;1.92;;;1.60;;
8353;SDS011;4656;48.090;11.498;2023-05-07T08:50:57;2.72;;;1.90;;
8353;SDS011;4656;48.090;11.498;2023-05-07T08:52:59;3.38;;;1.80;;
8353;SDS011;4656;48.090;11.498;2023-05-07T08:55:02;3.70;;;2.10;;
8353;SDS011;4656;48.090;11.498;2023-05-07T08:57:04;2.38;;;1.70;;
8353;SDS011;4656;48.090;11.498;2023-05-07T08:59:09;2.05;;;1.85;;
8353;SDS011;4656;48.090;11.498;2023-05-07T09:01:12;2.67;;;1.92;;
8353;SDS011;4656;48.090;11.498;2023-05-07T09:03:16;3.47;;;1.80;;
8353;SDS011;4656;48.090;11.498;2023-05-07T09:05:18;5.43;;;1.70;;
8353;SDS011;4656;48.090;11.498;2023-05-07T09:07:21;3.05;;;1.70;;
8353;SDS011;4656;48.090;11.498;2023-05-07T09:09:23;3.00;;;1.67;;
8353;SDS011;4656;48.090;11.498;2023-05-07T09:11:25;2.92;;;1.83;;
8353;SDS011;4656;48.090;11.498;2023-05-07T09:13:28;1.67;;;1.58;;
8353;SDS011;4656;48.090;11.498;2023-05-07T09:15:30;2.65;;;1.65;;
8353;SDS011;4656;48.090;11.498;2023-05-07T09:17:32;2.30;;;1.60;;
8353;SDS011;4656;48.090;11.498;2023-05-07T09:19:36;2.60;;;1.70;;
8353;SDS011;4656;48.090;11.498;2023-05-07T09:21:38;2.93;;;1.77;;
8353;SDS011;4656;48.090;11.498;2023-05-07T09:23:40;2.90;;;1.80;;
8353;SDS011;4656;48.090;11.498;2023-05-07T09:25:43;1.63;;;1.52;;
8353;SDS011;4656;48.090;11.498;2023-05-07T09:27:45;1.80;;;1.70;;
8353;SDS011;4656;48.090;11.498;2023-05-07T09:29:49;1.75;;;1.60;;
8353;SDS011;4656;48.090;11.498;2023-05-07T09:31:53;2.50;;;1.70;;
8353;SDS011;4656;48.090;11.498;2023-05-07T09:33:59;1.77;;;1.60;;
8353;SDS011;4656;48.090;11.498;2023-05-07T09:36:05;1.50;;;1.40;;
8353;SDS011;4656;48.090;11.498;2023-05-07T09:38:08;1.58;;;1.48;;
8353;SDS011;4656;48.090;11.498;2023-05-07T09:40:19;2.10;;;1.42;;
8353;SDS011;4656;48.090;11.498;2023-05-07T09:42:24;2.47;;;1.50;;
8353;SDS011;4656;48.090;11.498;2023-05-07T09:44:27;1.77;;;1.35;;
8353;SDS011;4656;48.090;11.498;2023-05-07T09:46:30;2.40;;;1.33;;
8353;SDS011;4656;48.090;11.498;2023-05-07T09:48:35;1.60;;;1.50;;
8353;SDS011;4656;48.090;11.498;2023-05-07T09:50:40;2.80;;;1.53;;
8353;SDS011;4656;48.090;11.498;2023-05-07T09:52:47;2.15;;;1.63;;
8353;SDS011;4656;48.090;11.498;2023-05-07T09:54:50;2.67;;;1.60;;
8353;SDS011;4656;48.090;11.498;2023-05-07T09:56:53;2.08;;;1.30;;
8353;SDS011;4656;48.090;11.498;2023-05-07T09:58:59;2.15;;;1.33;;
8353;SDS011;4656;48.090;11.498;2023-05-07T10:01:01;1.70;;;1.60;;
8353;SDS011;4656;48.090;11.498;2023-05-07T10:03:04;1.63;;;1.40;;
8353;SDS011;4656;48.090;11.498;2023-05-07T10:05:08;2.85;;;1.40;;
8353;SDS011;4656;48.090;11.498;2023-05-07T10:07:10;1.67;;;1.40;;
8353;SDS011;4656;48.090;11.498;2023-05-07T10:09:14;2.38;;;1.45;;
8353;SDS011;4656;48.090;11.498;2023-05-07T10:11:16;2.15;;;1.50;;
8353;SDS011;4656;48.090;11.498;2023-05-07T10:13:19;2.47;;;1.50;;
8353;SDS011;4656;48.090;11.498;2023-05-07T10:15:21;1.95;;;1.63;;
8353;SDS011;4656;48.090;11.498;2023-05-07T10:17:24;1.27;;;1.17;;
8353;SDS011;4656;48.090;11.498;2023-05-07T10:19:27;1.90;;;1.63;;
8353;SDS011;4656;48.090;11.498;2023-05-07T10:21:30;2.30;;;1.70;;
8353;SDS011;4656;48.090;11.498;2023-05-07T10:23:32;2.55;;;1.42;;
8353;SDS011;4656;48.090;11.498;2023-05-07T10:25:36;1.95;;;1.63;;
8353;SDS011;4656;48.090;11.498;2023-05-07T10:27:38;2.17;;;1.30;;
8353;SDS011;4656;48.090;11.498;2023-05-07T10:29:43;1.83;;;1.33;;
8353;SDS011;4656;48.090;11.498;2023-05-07T10:31:55;2.15;;;1.40;;
8353;SDS011;4656;48.090;11.498;2023-05-07T10:33:57;2.40;;;1.60;;
8353;SDS011;4656;48.090;11.498;2023-05-07T10:36:01;1.65;;;1.50;;
8353;SDS011;4656;48.090;11.498;2023-05-07T10:38:04;6.05;;;3.92;;
8353;SDS011;4656;48.090;11.498;2023-05-07T10:40:07;3.33;;;1.92;;
8353;SDS011;4656;48.090;11.498;2023-05-07T10:42:21;2.00;;;1.60;;
8353;SDS011;4656;48.090;11.498;2023-05-07T10:44:26;2.30;;;1.85;;
8353;SDS011;4656;48.090;11.498;2023-05-07T10:46:29;2.38;;;1.60;;
8353;SDS011;4656;48.090;11.498;2023-05-07T10:48:35;2.10;;;1.85;;
8353;SDS011;4656;48.090;11.498;2023-05-07T10:53:20;1.87;;;1.50;;
8353;SDS011;4656;48.090;11.498;2023-05-07T10:55:24;2.92;;;2.15;;
8353;SDS011;4656;48.090;11.498;2023-05-07T10:57:34;7.88;;;4.63;;
8353;SDS011;4656;48.090;11.498;2023-05-07T10:59:36;2.53;;;1.80;;
8353;SDS011;4656;48.090;11.498;2023-05-07T11:01:49;2.50;;;1.80;;
8353;SDS011;4656;48.090;11.498;2023-05-07T11:06:09;2.38;;;1.98;;
8353;SDS011;4656;48.090;11.498;2023-05-07T11:08:11;1.92;;;1.52;;
8353;SDS011;4656;48.090;11.498;2023-05-07T11:10:13;1.67;;;1.50;;
8353;SDS011;4656;48.090;11.498;2023-05-07T11:12:16;3.00;;;1.35;;
8353;SDS011;4656;48.090;11.498;2023-05-07T11:16:36;2.60;;;1.42;;
8353;SDS011;4656;48.090;11.498;2023-05-07T11:18:46;2.15;;;1.60;;
8353;SDS011;4656;48.090;11.498;2023-05-07T11:20:56;1.73;;;1.52;;
8353;SDS011;4656;48.090;11.498;2023-05-07T11:22:59;2.25;;;1.60;;
8353;SDS011;4656;48.090;11.498;2023-05-07T11:25:02;3.25;;;1.70;;
8353;SDS011;4656;48.090;11.498;2023-05-07T11:27:04;2.72;;;1.60;;
8353;SDS011;4656;48.090;11.498;2023-05-07T11:29:10;1.60;;;1.50;;
8353;SDS011;4656;48.090;11.498;2023-05-07T11:31:12;2.60;;;2.00;;
8353;SDS011;4656;48.090;11.498;2023-05-07T11:33:18;1.60;;;1.50;;
8353;SDS011;4656;48.090;11.498;2023-05-07T11:35:22;1.63;;;1.52;;
8353;SDS011;4656;48.090;11.498;2023-05-07T11:37:25;2.10;;;1.50;;
8353;SDS011;4656;48.090;11.498;2023-05-07T11:39:30;1.70;;;1.60;;
8353;SDS011;4656;48.090;11.498;2023-05-07T11:41:33;2.88;;;1.70;;
8353;SDS011;4656;48.090;11.498;2023-05-07T11:43:36;1.70;;;1.60;;
8353;SDS011;4656;48.090;11.498;2023-05-07T11:45:40;2.60;;;1.63;;
8353;SDS011;4656;48.090;11.498;2023-05-07T11:47:42;2.77;;;1.60;;
8353;SDS011;4656;48.090;11.498;2023-05-07T11:49:47;2.35;;;1.90;;
8353;SDS011;4656;48.090;11.498;2023-05-07T11:51:49;4.07;;;1.83;;
8353;SDS011;4656;48.090;11.498;2023-05-07T11:53:52;2.10;;;1.90;;
8353;SDS011;4656;48.090;11.498;2023-05-07T11:55:54;2.50;;;1.98;;
8353;SDS011;4656;48.090;11.498;2023-05-07T11:57:57;3.83;;;1.90;;
8353;SDS011;4656;48.090;11.498;2023-05-07T11:59:59;2.83;;;2.00;;
8353;SDS011;4656;48.090;11.498;2023-05-07T12:02:04;2.60;;;2.08;;
8353;SDS011;4656;48.090;11.498;2023-05-07T12:04:06;2.08;;;1.88;;
8353;SDS011;4656;48.090;11.498;2023-05-07T12:06:10;2.97;;;2.00;;
8353;SDS011;4656;48.090;11.498;2023-05-07T12:08:13;2.40;;;2.05;;
8353;SDS011;4656;48.090;11.498;2023-05-07T12:10:16;3.08;;;1.90;;
8353;SDS011;4656;48.090;11.498;2023-05-07T12:12:19;3.00;;;2.70;;
8353;SDS011;4656;48.090;11.498;2023-05-07T12:14:21;2.83;;;2.45;;
8353;SDS011;4656;48.090;11.498;2023-05-07T12:16:24;2.58;;;2.20;;
8353;SDS011;4656;48.090;11.498;2023-05-07T12:18:26;2.03;;;1.80;;
8353;SDS011;4656;48.090;11.498;2023-05-07T12:20:28;2.85;;;2.15;;
8353;SDS011;4656;48.090;11.498;2023-05-07T12:22:32;3.40;;;2.28;;
8353;SDS011;4656;48.090;11.498;2023-05-07T12:24:44;2.78;;;2.10;;
8353;SDS011;4656;48.090;11.498;2023-05-07T12:26:47;3.92;;;2.25;;
8353;SDS011;4656;48.090;11.498;2023-05-07T12:28:49;2.58;;;2.08;;
8353;SDS011;4656;48.090;11.498;2023-05-07T12:30:51;3.80;;;2.30;;
8353;SDS011;4656;48.090;11.498;2023-05-07T12:32:54;2.97;;;2.30;;
8353;SDS011;4656;48.090;11.498;2023-05-07T12:34:57;3.42;;;2.80;;